Swansea, California
Current Conditions -  °F | °C
As of 12:56 AM on Thursday 27 Nov 2014 (Local Time) from KBIH Reporting Station
Clear Clear  
Wind Chill: 32°   Ceiling: Unl
Heat Index: 37°   Visibility: 10mi
Dew Point: 16°   Wind: 7mph
Humidity: 42%   Direction: 300°WNW
Pressure: 30.36"   Gusts: NA
Location:  36.6126°N, 118.162°W
Report Text: KBIH 270856Z AUTO 30006KT 10SM CLR 03/M09 A3036 RMK AO2 SLP259 T00281089 58005
Loading
Personal Weather Stations






























Interactive Weather Map New forecast layout! Learn more

10-Day Weather Forecast

Advertisements
Track Severe Weather on mobile